Time;durP1;ratioP1;P1;durP2;ratioP2;P2;SDS_P1;SDS_P2;PMS_P1;PMS_P2;Temp;Humidity;BMP_temperature;BMP_pressure;BME280_temperature;BME280_humidity;BME280_pressure;Samples;Min_cycle;Max_cycle;Signal;HPM_P1;HPM_P2
2023/07/30 00:00:28;;;;;;;5.60;2.17;;;;;;;13.49;100.00;100725.16;1001182;29;20048;-87
2023/07/30 00:01:00;;;;;;;7.50;2.55;;;;;;;13.53;100.00;100728.19;1000579;29;20202;-87
2023/07/30 00:01:32;;;;;;;6.68;2.33;;;;;;;13.50;100.00;100728.66;1001336;29;20147;-87
2023/07/30 00:02:04;;;;;;;7.72;2.22;;;;;;;13.66;100.00;100727.88;1009083;29;20185;-87
2023/07/30 00:02:36;;;;;;;4.65;1.98;;;;;;;13.59;100.00;100733.38;1007924;29;20041;-87
2023/07/30 00:03:07;;;;;;;8.13;2.45;;;;;;;13.49;100.00;100730.53;1009883;29;20045;-87
2023/07/30 00:03:39;;;;;;;4.47;1.60;;;;;;;13.33;100.00;100725.91;1008358;29;20045;-87
2023/07/30 00:04:11;;;;;;;4.57;2.10;;;;;;;13.29;100.00;100725.56;1007779;29;20449;-87
2023/07/30 00:04:43;;;;;;;7.18;1.80;;;;;;;13.23;100.00;100729.19;1004257;29;20056;-86
2023/07/30 00:05:15;;;;;;;4.97;1.80;;;;;;;13.14;100.00;100724.41;1014271;29;20047;-87
2023/07/30 00:05:55;;;;;;;7.00;2.33;;;;;;;13.11;100.00;100727.56;1014116;29;20044;-87
2023/07/30 00:06:27;;;;;;;4.57;1.98;;;;;;;13.19;100.00;100736.06;1006674;29;20065;-87
2023/07/30 00:06:58;;;;;;;5.45;2.63;;;;;;;13.38;100.00;100722.50;1001651;29;20046;-86
2023/07/30 00:07:32;;;;;;;7.05;2.97;;;;;;;13.42;100.00;100723.66;1007838;29;20045;-87
2023/07/30 00:08:04;;;;;;;11.63;2.05;;;;;;;13.28;100.00;100723.94;1006022;29;20069;-87
2023/07/30 00:08:36;;;;;;;2.85;1.88;;;;;;;13.37;100.00;100726.25;1006049;29;20045;-87
2023/07/30 00:09:07;;;;;;;6.18;1.95;;;;;;;13.40;100.00;100728.44;1000443;29;20503;-87
2023/07/30 00:09:39;;;;;;;5.47;2.00;;;;;;;13.25;100.00;100729.78;1001664;29;20045;-87
2023/07/30 00:10:11;;;;;;;4.35;1.73;;;;;;;13.22;100.00;100727.56;1010109;29;20056;-87
2023/07/30 00:10:42;;;;;;;3.85;2.42;;;;;;;13.15;100.00;100734.91;1006045;29;20053;-87
2023/07/30 00:11:14;;;;;;;5.50;2.55;;;;;;;13.11;100.00;100722.19;1017240;29;20040;-87
2023/07/30 00:11:45;;;;;;;4.47;1.55;;;;;;;13.00;100.00;100726.53;1008140;29;20045;-87
2023/07/30 00:12:17;;;;;;;4.78;3.35;;;;;;;12.96;100.00;100725.38;1009689;29;20045;-86
2023/07/30 00:12:48;;;;;;;3.17;2.00;;;;;;;13.03;100.00;100726.06;1009836;29;20053;-87
2023/07/30 00:13:20;;;;;;;5.38;2.33;;;;;;;13.15;100.00;100734.09;1013278;29;20044;-87
2023/07/30 00:13:52;;;;;;;4.22;1.48;;;;;;;13.17;100.00;100724.81;1009373;29;20052;-87
2023/07/30 00:14:23;;;;;;;9.38;2.70;;;;;;;13.33;100.00;100725.09;996492;29;20098;-87
2023/07/30 00:14:55;;;;;;;6.05;3.45;;;;;;;13.43;100.00;100736.03;1004485;29;20140;-87
2023/07/30 00:15:26;;;;;;;4.88;2.10;;;;;;;13.52;100.00;100738.06;1006711;29;20066;-87
2023/07/30 00:15:58;;;;;;;4.88;2.35;;;;;;;13.55;100.00;100734.09;1005463;29;20077;-87
2023/07/30 00:16:30;;;;;;;4.40;2.13;;;;;;;13.42;100.00;100735.22;998146;29;20042;-87
2023/07/30 00:17:02;;;;;;;4.82;3.20;;;;;;;13.53;100.00;100738.88;1000731;29;20057;-87
2023/07/30 00:17:34;;;;;;;6.00;2.22;;;;;;;13.46;100.00;100731.00;1001813;29;20046;-86
2023/07/30 00:18:05;;;;;;;3.00;1.92;;;;;;;13.29;100.00;100730.91;1005680;29;20049;-87
2023/07/30 00:18:37;;;;;;;6.32;1.90;;;;;;;13.41;100.00;100732.75;1003640;29;20046;-87
2023/07/30 00:19:10;;;;;;;7.30;2.45;;;;;;;13.43;100.00;100736.84;1001445;29;20050;-87
2023/07/30 00:19:42;;;;;;;3.08;1.90;;;;;;;13.45;100.00;100734.72;1004174;29;20421;-87
2023/07/30 00:20:13;;;;;;;2.88;1.98;;;;;;;13.43;100.00;100731.47;1006379;29;20051;-87
2023/07/30 00:20:45;;;;;;;4.32;2.47;;;;;;;13.50;100.00;100732.16;1006278;29;20055;-87
2023/07/30 00:21:16;;;;;;;9.63;2.45;;;;;;;13.41;100.00;100733.56;1004442;29;20041;-87
2023/07/30 00:21:48;;;;;;;7.35;1.95;;;;;;;13.36;100.00;100728.09;1000269;29;20056;-87
2023/07/30 00:22:19;;;;;;;8.10;2.45;;;;;;;13.51;100.00;100732.97;1007726;29;20069;-87
2023/07/30 00:22:54;;;;;;;8.77;2.53;;;;;;;13.61;100.00;100725.13;1012831;29;20104;-87
2023/07/30 00:23:26;;;;;;;5.53;2.60;;;;;;;13.36;100.00;100724.63;1007056;29;20085;-87
2023/07/30 00:23:58;;;;;;;6.07;1.95;;;;;;;13.41;100.00;100724.72;1005946;29;20052;-87
2023/07/30 00:24:29;;;;;;;5.07;2.38;;;;;;;13.52;100.00;100726.56;1005659;29;20114;-87
2023/07/30 00:25:01;;;;;;;8.55;2.38;;;;;;;13.52;100.00;100734.59;1012262;29;20103;-87
2023/07/30 00:25:32;;;;;;;2.67;1.88;;;;;;;13.56;100.00;100728.50;1005396;29;20049;-87
2023/07/30 00:26:04;;;;;;;11.82;2.67;;;;;;;13.40;100.00;100725.75;1005725;29;20152;-87
2023/07/30 00:26:38;;;;;;;7.72;2.30;;;;;;;13.45;100.00;100731.25;1010136;29;20045;-86
2023/07/30 00:27:10;;;;;;;5.82;3.30;;;;;;;13.47;100.00;100737.16;1010125;29;20136;-86
2023/07/30 00:27:42;;;;;;;10.32;2.70;;;;;;;13.63;100.00;100735.59;1006088;29;20048;-87
2023/07/30 00:28:13;;;;;;;6.30;2.63;;;;;;;13.53;100.00;100730.84;1006347;29;20058;-87
2023/07/30 00:28:45;;;;;;;5.50;3.67;;;;;;;13.24;100.00;100725.47;1005893;29;20053;-87
2023/07/30 00:29:17;;;;;;;3.83;2.20;;;;;;;13.12;100.00;100727.31;1010217;29;20473;-87
2023/07/30 00:29:49;;;;;;;5.45;2.35;;;;;;;13.39;100.00;100732.16;1005847;29;20080;-87
2023/07/30 00:30:21;;;;;;;7.65;2.90;;;;;;;13.39;100.00;100734.84;1009817;29;20056;-87
2023/07/30 00:30:52;;;;;;;8.43;2.53;;;;;;;13.29;100.00;100730.91;1010201;29;20321;-86
2023/07/30 00:31:24;;;;;;;3.92;2.10;;;;;;;13.15;100.00;100729.53;1009413;29;20052;-87
2023/07/30 00:32:01;;;;;;;7.75;2.67;;;;;;;13.30;100.00;100727.19;1006392;29;20038;-87
2023/07/30 00:32:33;;;;;;;5.63;2.25;;;;;;;13.33;100.00;100725.09;1007632;29;20208;-87
2023/07/30 00:33:05;;;;;;;4.03;2.60;;;;;;;13.43;100.00;100725.31;1005002;29;20077;-87
2023/07/30 00:33:36;;;;;;;7.30;2.50;;;;;;;13.40;100.00;100728.44;1009376;29;20053;-87
2023/07/30 00:34:08;;;;;;;8.02;3.28;;;;;;;13.49;100.00;100729.72;1002009;29;20074;-87
2023/07/30 00:34:39;;;;;;;6.18;2.50;;;;;;;13.44;100.00;100732.28;1002979;29;20046;-87
2023/07/30 00:35:12;;;;;;;3.30;2.45;;;;;;;13.47;100.00;100732.63;1002499;29;20061;-86
2023/07/30 00:35:44;;;;;;;4.32;2.60;;;;;;;13.36;100.00;100729.97;1003487;29;20046;-87
2023/07/30 00:36:15;;;;;;;7.43;2.78;;;;;;;13.43;100.00;100725.31;1009769;29;20056;-87
2023/07/30 00:36:48;;;;;;;7.90;2.70;;;;;;;13.50;100.00;100731.34;1010045;29;20049;-86
2023/07/30 00:37:20;;;;;;;4.43;2.17;;;;;;;13.50;100.00;100731.34;1010405;29;20041;-87
2023/07/30 00:37:51;;;;;;;5.35;2.38;;;;;;;13.59;100.00;100730.72;1008074;29;20143;-87
2023/07/30 00:38:23;;;;;;;3.97;2.15;;;;;;;13.60;100.00;100736.88;1002239;29;20129;-86
2023/07/30 00:38:55;;;;;;;10.30;2.97;;;;;;;13.56;100.00;100733.06;1005971;29;20050;-87
2023/07/30 00:39:26;;;;;;;6.90;3.38;;;;;;;13.68;100.00;100733.00;1009862;29;20044;-87
2023/07/30 00:39:58;;;;;;;7.50;3.17;;;;;;;13.77;100.00;100731.59;1005920;29;20053;-87
2023/07/30 00:40:30;;;;;;;5.15;2.53;;;;;;;13.72;100.00;100734.16;1010246;29;20073;-86
2023/07/30 00:41:02;;;;;;;6.25;1.95;;;;;;;13.68;100.00;100733.81;1005963;29;20042;-86
2023/07/30 00:41:33;;;;;;;6.53;3.72;;;;;;;13.59;100.00;100729.91;1005649;29;20049;-86
2023/07/30 00:42:05;;;;;;;4.38;2.70;;;;;;;13.61;100.00;100727.78;1009425;29;20049;-86
2023/07/30 00:42:37;;;;;;;5.82;2.72;;;;;;;13.58;100.00;100738.97;1006141;29;20528;-87
2023/07/30 00:43:09;;;;;;;7.28;3.00;;;;;;;13.68;100.00;100733.81;997409;29;20052;-87
2023/07/30 00:43:40;;;;;;;8.05;2.40;;;;;;;13.47;100.00;100726.47;1006986;29;20049;-87
2023/07/30 00:44:12;;;;;;;7.18;4.65;;;;;;;13.56;100.00;100725.03;1009932;29;20044;-87
2023/07/30 00:44:45;;;;;;;7.82;2.40;;;;;;;13.65;100.00;100728.94;1004639;29;20138;-87
2023/07/30 00:45:17;;;;;;;8.10;3.05;;;;;;;13.68;100.00;100727.66;1003052;29;20061;-87
2023/07/30 00:45:49;;;;;;;6.15;3.22;;;;;;;13.67;100.00;100726.03;997604;29;20111;-87
2023/07/30 00:46:21;;;;;;;5.25;2.83;;;;;;;13.65;100.00;100728.94;998475;29;20050;-87
2023/07/30 00:46:52;;;;;;;5.38;2.33;;;;;;;13.71;100.00;100722.66;1001343;29;20082;-87
2023/07/30 00:47:25;;;;;;;6.45;2.80;;;;;;;13.76;100.00;100728.09;1001263;29;20082;-87
2023/07/30 00:47:56;;;;;;;11.07;3.17;;;;;;;13.83;100.00;100720.72;1004653;29;20045;-86
2023/07/30 00:48:29;;;;;;;7.80;3.40;;;;;;;13.86;100.00;100730.94;1006236;29;20108;-87
2023/07/30 00:49:02;;;;;;;11.15;5.00;;;;;;;13.75;100.00;100725.66;1006639;29;20133;-87
2023/07/30 00:49:34;;;;;;;6.95;2.63;;;;;;;13.78;100.00;100728.66;1009501;29;20051;-87
2023/07/30 00:50:07;;;;;;;10.70;3.20;;;;;;;13.89;100.00;100724.28;1004892;29;20057;-87
2023/07/30 00:50:39;;;;;;;6.75;3.25;;;;;;;13.85;100.00;100723.97;1001876;29;20041;-87
2023/07/30 00:51:13;;;;;;;6.28;2.58;;;;;;;13.86;100.00;100725.59;1002245;29;20071;-87
2023/07/30 00:51:45;;;;;;;10.65;4.50;;;;;;;13.83;100.00;100723.41;998955;29;20038;-87
2023/07/30 00:52:18;;;;;;;4.93;2.30;;;;;;;13.74;100.00;100730.19;1001432;29;20053;-87
2023/07/30 00:52:50;;;;;;;4.90;2.40;;;;;;;13.84;100.00;100733.06;1002168;29;20057;-87
2023/07/30 00:53:22;;;;;;;8.32;3.90;;;;;;;13.88;100.00;100728.03;1008551;29;20045;-86
2023/07/30 00:53:54;;;;;;;5.57;2.38;;;;;;;13.76;100.00;100727.28;1009821;29;20049;-87
2023/07/30 00:54:26;;;;;;;8.82;3.15;;;;;;;13.54;100.00;100732.47;998659;29;20046;-87
2023/07/30 00:54:59;;;;;;;8.57;3.30;;;;;;;13.72;100.00;100721.59;1001194;29;20186;-88
2023/07/30 00:55:31;;;;;;;6.93;2.72;;;;;;;13.83;100.00;100734.09;1006318;29;20175;-87
2023/07/30 00:56:03;;;;;;;4.25;3.70;;;;;;;13.93;100.00;100742.31;1005000;29;20057;-87
2023/07/30 00:56:34;;;;;;;7.07;3.10;;;;;;;13.98;100.00;100732.78;1002346;29;20046;-87
2023/07/30 00:57:07;;;;;;;9.73;4.32;;;;;;;13.80;100.00;100731.91;1008986;29;20182;-87
2023/07/30 00:57:39;;;;;;;6.43;3.03;;;;;;;13.63;100.00;100741.75;1002235;29;20087;-87
2023/07/30 00:58:11;;;;;;;10.88;3.10;;;;;;;13.70;100.00;100725.56;1005998;29;20050;-86
2023/07/30 00:58:44;;;;;;;4.80;2.50;;;;;;;13.78;100.00;100739.38;1006702;29;20048;-86
2023/07/30 00:59:15;;;;;;;7.75;3.33;;;;;;;13.79;100.00;100732.97;1001815;29;20038;-87
2023/07/30 00:59:48;;;;;;;6.55;3.13;;;;;;;13.81;100.00;100738.88;999685;29;20046;-87
2023/07/30 01:00:20;;;;;;;8.68;2.70;;;;;;;13.85;100.00;100745.38;1004000;29;20038;-88
2023/07/30 01:00:53;;;;;;;9.50;2.60;;;;;;;13.89;100.00;100741.16;1006964;29;20045;-86
2023/07/30 01:01:24;;;;;;;6.32;3.35;;;;;;;13.95;100.00;100741.25;1008490;29;20036;-89
2023/07/30 01:01:57;;;;;;;15.98;3.13;;;;;;;13.90;100.00;100742.78;1006595;29;20049;-88
2023/07/30 01:02:29;;;;;;;7.30;3.22;;;;;;;13.88;100.00;100742.22;1004576;29;20508;-87
2023/07/30 01:03:01;;;;;;;9.90;3.97;;;;;;;13.99;100.00;100745.09;1008399;29;20194;-88
2023/07/30 01:03:32;;;;;;;3.55;2.38;;;;;;;14.02;100.00;100744.63;1008375;29;20128;-88
2023/07/30 01:04:04;;;;;;;12.27;3.65;;;;;;;14.01;100.00;100745.66;1005972;29;20148;-88
2023/07/30 01:04:37;;;;;;;4.25;2.45;;;;;;;14.03;100.00;100746.25;1001336;29;20046;-88
2023/07/30 01:05:08;;;;;;;12.35;3.80;;;;;;;14.02;100.00;100744.63;1003568;29;20046;-89
2023/07/30 01:05:40;;;;;;;7.13;2.70;;;;;;;14.04;100.00;100745.19;1004670;29;20048;-88
2023/07/30 01:06:12;;;;;;;7.90;3.28;;;;;;;14.06;100.00;100743.06;1009496;29;20052;-88
2023/07/30 01:06:44;;;;;;;4.35;2.80;;;;;;;14.12;100.00;100742.91;1010431;29;20068;-88
2023/07/30 01:07:15;;;;;;;7.68;2.65;;;;;;;14.13;100.00;100739.19;1007812;29;20057;-88
2023/07/30 01:07:47;;;;;;;4.47;3.00;;;;;;;14.04;100.00;100745.19;1009346;29;20051;-88
2023/07/30 01:08:19;;;;;;;9.20;3.10;;;;;;;14.06;100.00;100741.22;1008365;29;20036;-88
2023/07/30 01:08:50;;;;;;;8.18;4.30;;;;;;;14.06;100.00;100735.03;1000943;29;20061;-88
2023/07/30 01:09:22;;;;;;;5.97;3.38;;;;;;;13.86;100.00;100744.34;1005911;29;20045;-88
2023/07/30 01:09:54;;;;;;;8.38;2.70;;;;;;;13.86;100.00;100746.19;1009912;29;20041;-88
2023/07/30 01:10:26;;;;;;;4.53;2.70;;;;;;;13.91;100.00;100738.25;1016572;29;20048;-88
2023/07/30 01:10:58;;;;;;;6.60;3.45;;;;;;;13.98;100.00;100740.81;999065;29;20050;-88
2023/07/30 01:11:30;;;;;;;6.97;2.67;;;;;;;13.96;100.00;100745.56;1001880;29;20049;-88
2023/07/30 01:12:02;;;;;;;5.57;2.63;;;;;;;13.97;100.00;100739.16;1010471;29;20082;-88
2023/07/30 01:12:34;;;;;;;7.50;3.05;;;;;;;13.97;100.00;100742.66;1008373;29;20049;-88
2023/07/30 01:13:07;;;;;;;4.45;2.90;;;;;;;14.05;100.00;100746.81;1006837;29;20064;-88
2023/07/30 01:13:39;;;;;;;8.15;2.53;;;;;;;14.03;100.00;100740.88;1002883;29;20135;-88
2023/07/30 01:14:11;;;;;;;7.68;2.72;;;;;;;14.01;100.00;100743.00;1001689;29;20049;-88
2023/07/30 01:14:44;;;;;;;7.85;2.90;;;;;;;13.93;100.00;100745.00;1006301;29;20079;-88
2023/07/30 01:15:16;;;;;;;11.07;2.72;;;;;;;13.89;100.00;100745.72;1011147;29;20491;-88
2023/07/30 01:15:48;;;;;;;8.60;2.88;;;;;;;13.81;100.00;100744.25;1007109;29;20045;-87
2023/07/30 01:16:20;;;;;;;6.65;2.78;;;;;;;13.87;100.00;100743.28;1010405;29;20044;-88
2023/07/30 01:16:52;;;;;;;10.20;2.90;;;;;;;13.86;100.00;100741.66;1005628;29;20053;-87
2023/07/30 01:17:24;;;;;;;10.15;3.10;;;;;;;13.95;100.00;100743.94;1011641;29;20061;-87
2023/07/30 01:17:56;;;;;;;6.45;4.45;;;;;;;14.03;100.00;100748.91;1002078;29;20042;-87
2023/07/30 01:18:29;;;;;;;7.78;3.53;;;;;;;14.04;100.00;100745.19;1002715;29;20042;-88
2023/07/30 01:19:04;;;;;;;6.38;3.05;;;;;;;14.04;100.00;100748.69;1005884;29;20535;-87
2023/07/30 01:19:35;;;;;;;5.72;3.40;;;;;;;13.89;100.00;100751.06;1002262;29;20042;-88
2023/07/30 01:20:07;;;;;;;9.32;5.82;;;;;;;13.99;100.00;100750.47;999467;29;20201;-88
2023/07/30 01:20:39;;;;;;;6.68;3.15;;;;;;;14.07;100.00;100750.88;1001655;29;20077;-88
2023/07/30 01:21:11;;;;;;;6.03;2.90;;;;;;;14.05;100.00;100747.63;1003149;29;20064;-88
2023/07/30 01:21:42;;;;;;;5.97;2.92;;;;;;;14.05;100.00;100749.50;1004659;29;20050;-88
2023/07/30 01:22:14;;;;;;;5.75;2.88;;;;;;;14.07;100.00;100742.03;1009979;29;20121;-87
2023/07/30 01:22:46;;;;;;;6.97;3.25;;;;;;;14.08;100.00;100751.69;1005658;29;20044;-88
2023/07/30 01:23:17;;;;;;;6.47;2.72;;;;;;;14.11;100.00;100751.19;1002278;29;20049;-88
2023/07/30 01:23:49;;;;;;;7.25;2.63;;;;;;;14.13;100.00;100749.09;1000654;29;20057;-88
2023/07/30 01:24:21;;;;;;;6.35;3.00;;;;;;;13.98;100.00;100748.84;1005148;29;20057;-88
2023/07/30 01:24:52;;;;;;;8.18;3.40;;;;;;;14.10;100.00;100746.91;1006832;29;20500;-88
2023/07/30 01:25:27;;;;;;;11.90;2.65;;;;;;;14.09;100.00;100747.94;1007242;29;20033;-88
2023/07/30 01:26:05;;;;;;;10.73;4.00;;;;;;;13.96;100.00;100756.28;1003248;29;20045;-88
2023/07/30 01:26:40;;;;;;;5.65;3.25;;;;;;;13.99;100.00;100745.09;1000859;29;20053;-88
2023/07/30 01:27:16;;;;;;;9.38;3.65;;;;;;;13.97;100.00;100752.53;1001824;29;20101;-88
2023/07/30 01:27:51;;;;;;;4.45;2.20;;;;;;;13.84;100.00;100743.75;1000534;29;20417;-88
2023/07/30 01:28:23;;;;;;;7.53;3.45;;;;;;;14.02;100.00;100749.97;1001848;29;20049;-88
2023/07/30 01:28:58;;;;;;;9.82;2.88;;;;;;;13.98;100.00;100743.47;1000816;29;20038;-88
2023/07/30 01:29:50;;;;;;;9.90;2.45;;;;;;;14.02;100.00;100749.97;997201;29;20512;-88
2023/07/30 01:30:26;;;;;;;6.80;2.72;;;;;;;14.04;100.00;100747.88;1001316;29;20444;-88
2023/07/30 01:30:59;;;;;;;6.55;2.45;;;;;;;14.10;100.00;100747.72;1000998;29;20046;-88
2023/07/30 01:31:33;;;;;;;5.55;2.80;;;;;;;14.09;100.00;100745.28;1008312;29;20162;-87
2023/07/30 01:32:07;;;;;;;8.07;2.88;;;;;;;14.08;100.00;100749.00;1013450;29;20059;-88
2023/07/30 01:32:40;;;;;;;5.95;3.13;;;;;;;14.15;100.00;100752.34;1006142;29;20186;-88
2023/07/30 01:33:12;;;;;;;9.80;2.85;;;;;;;13.83;100.00;100746.69;1003537;29;20206;-88
2023/07/30 01:33:47;;;;;;;4.50;2.40;;;;;;;13.83;100.00;100747.50;1008145;29;20112;-88
2023/07/30 01:34:19;;;;;;;6.43;3.40;;;;;;;13.92;100.00;100754.06;1004428;29;20069;-88
2023/07/30 01:34:53;;;;;;;6.75;3.05;;;;;;;14.01;100.00;100753.72;1004760;29;20097;-88
2023/07/30 01:35:27;;;;;;;4.85;2.95;;;;;;;14.05;100.00;100757.53;1005007;29;20101;-88
2023/07/30 01:35:59;;;;;;;5.22;3.22;;;;;;;14.07;100.00;100753.56;1005241;29;20420;-88
2023/07/30 01:36:31;;;;;;;7.55;2.45;;;;;;;14.06;100.00;100751.13;1008860;29;20041;-88
2023/07/30 01:37:05;;;;;;;5.55;2.63;;;;;;;14.10;100.00;100758.41;1001921;29;20079;-88
2023/07/30 01:37:38;;;;;;;6.32;3.17;;;;;;;14.07;100.00;100755.41;1005995;29;20041;-87
2023/07/30 01:38:10;;;;;;;14.63;2.50;;;;;;;13.93;100.00;100753.03;1005754;29;20046;-88
2023/07/30 01:38:42;;;;;;;5.97;3.05;;;;;;;13.78;100.00;100752.75;1004134;29;20084;-88
2023/07/30 01:39:14;;;;;;;4.22;2.30;;;;;;;13.58;100.00;100755.84;1000786;29;20046;-88
2023/07/30 01:39:48;;;;;;;9.07;2.47;;;;;;;13.76;100.00;100757.53;997388;29;20038;-88
2023/07/30 01:40:20;;;;;;;6.53;2.72;;;;;;;13.91;100.00;100757.81;1003033;29;20049;-88
2023/07/30 01:40:52;;;;;;;8.05;3.10;;;;;;;13.99;100.00;100753.13;1004636;29;20049;-88
2023/07/30 01:41:24;;;;;;;10.93;3.05;;;;;;;14.05;100.00;100749.50;1007295;29;20049;-88
2023/07/30 01:41:56;;;;;;;8.57;2.58;;;;;;;13.80;100.00;100752.50;1005374;29;20064;-87
2023/07/30 01:42:31;;;;;;;6.78;3.00;;;;;;;13.95;100.00;100760.00;1005788;29;20520;-88
2023/07/30 01:43:03;;;;;;;7.13;2.95;;;;;;;13.98;100.00;100759.56;1006021;29;21206;-87
2023/07/30 01:43:36;;;;;;;9.23;2.85;;;;;;;14.02;100.00;100766.03;1008501;29;20109;-88
2023/07/30 01:44:08;;;;;;;5.25;2.28;;;;;;;14.07;100.00;100758.09;1002193;29;20037;-88
2023/07/30 01:44:40;;;;;;;8.40;3.00;;;;;;;14.05;100.00;100752.16;997106;29;20049;-87
2023/07/30 01:45:12;;;;;;;5.82;2.15;;;;;;;13.96;100.00;100750.91;993759;29;20187;-88
2023/07/30 01:45:43;;;;;;;9.93;2.53;;;;;;;14.00;100.00;100752.91;998814;29;20053;-88
2023/07/30 01:46:15;;;;;;;5.22;2.15;;;;;;;14.05;100.00;100757.53;1006441;29;20049;-88
2023/07/30 01:46:46;;;;;;;12.23;3.25;;;;;;;14.06;100.00;100757.28;1009263;29;20093;-88
2023/07/30 01:47:18;;;;;;;4.88;2.67;;;;;;;14.07;100.00;100764.25;1004565;29;20045;-88
2023/07/30 01:47:50;;;;;;;6.55;2.97;;;;;;;13.90;100.00;100753.50;1004792;29;20064;-88
2023/07/30 01:48:21;;;;;;;7.18;2.90;;;;;;;13.93;100.00;100758.38;1001526;29;20440;-88
2023/07/30 01:48:53;;;;;;;5.18;2.50;;;;;;;13.97;100.00;100757.91;1001954;29;20233;-87
2023/07/30 01:49:25;;;;;;;5.35;3.05;;;;;;;14.01;100.00;100759.06;1002863;29;20050;-88
2023/07/30 01:49:56;;;;;;;3.65;2.40;;;;;;;13.99;100.00;100761.16;1001813;29;20046;-88
2023/07/30 01:50:29;;;;;;;5.85;2.33;;;;;;;13.91;100.00;100760.47;1010463;29;20041;-88
2023/07/30 01:51:00;;;;;;;5.25;2.35;;;;;;;13.97;100.00;100763.25;1005941;29;20060;-87
2023/07/30 01:51:32;;;;;;;12.48;2.67;;;;;;;14.04;100.00;100763.94;1009342;29;20439;-88
2023/07/30 01:52:05;;;;;;;5.28;3.40;;;;;;;14.04;100.00;100762.06;1006487;29;20126;-88
2023/07/30 01:52:36;;;;;;;8.90;2.45;;;;;;;14.08;100.00;100762.41;1002655;29;20046;-87
2023/07/30 01:53:08;;;;;;;5.93;3.08;;;;;;;14.04;100.00;100758.56;998485;29;20510;-88
2023/07/30 01:53:39;;;;;;;4.60;2.13;;;;;;;14.08;100.00;100757.03;998607;29;20048;-88
2023/07/30 01:54:11;;;;;;;3.40;2.38;;;;;;;14.07;100.00;100763.44;998892;29;20049;-87
2023/07/30 01:54:43;;;;;;;4.97;2.42;;;;;;;14.10;100.00;100763.78;1005366;29;20049;-88
2023/07/30 01:55:14;;;;;;;8.02;3.22;;;;;;;14.11;100.00;100759.22;1008277;29;20049;-88
2023/07/30 01:55:46;;;;;;;2.85;2.63;;;;;;;14.09;100.00;100756.78;1007351;29;20069;-88
2023/07/30 01:56:17;;;;;;;7.22;3.13;;;;;;;14.10;100.00;100757.59;1008005;29;20056;-88
2023/07/30 01:56:49;;;;;;;4.80;2.45;;;;;;;14.11;100.00;100765.41;1009216;29;20380;-88
2023/07/30 01:57:21;;;;;;;10.38;2.72;;;;;;;14.13;100.00;100762.47;1005933;29;20053;-88
2023/07/30 01:57:52;;;;;;;8.88;2.80;;;;;;;14.14;100.00;100764.09;1008820;29;20041;-88
2023/07/30 01:58:24;;;;;;;8.32;2.50;;;;;;;14.14;100.00;100761.44;1006574;29;20045;-88
2023/07/30 01:58:56;;;;;;;8.45;3.15;;;;;;;14.17;100.00;100759.06;1014343;29;20040;-88
2023/07/30 01:59:27;;;;;;;11.23;3.17;;;;;;;14.17;100.00;100763.63;1010388;29;20059;-88
2023/07/30 01:59:59;;;;;;;7.03;2.10;;;;;;;14.19;100.00;100761.50;1009374;29;20045;-88
2023/07/30 02:00:30;;;;;;;7.45;2.50;;;;;;;14.04;100.00;100758.56;1014879;29;20044;-88
2023/07/30 02:01:07;;;;;;;6.32;2.13;;;;;;;13.98;100.00;100760.34;1001860;29;20057;-88
2023/07/30 02:01:41;;;;;;;6.60;2.70;;;;;;;14.01;100.00;100761.75;1010737;29;20049;-88
2023/07/30 02:02:13;;;;;;;8.50;2.42;;;;;;;14.02;100.00;100763.38;1001342;29;20061;-88
2023/07/30 02:02:44;;;;;;;8.07;3.65;;;;;;;13.90;100.00;100758.06;1013144;29;20041;-88
2023/07/30 02:03:16;;;;;;;6.95;2.47;;;;;;;13.92;100.00;100763.97;1009670;29;20523;-88
2023/07/30 02:03:48;;;;;;;8.90;3.08;;;;;;;14.02;100.00;100763.38;1010141;29;20057;-88
2023/07/30 02:04:20;;;;;;;3.42;2.33;;;;;;;14.04;100.00;100763.94;1013531;29;20132;-88
2023/07/30 02:04:51;;;;;;;6.88;2.60;;;;;;;14.01;100.00;100759.06;1006410;29;20397;-88
2023/07/30 02:05:24;;;;;;;7.05;3.20;;;;;;;14.03;100.00;100762.31;1004524;29;20061;-88
2023/07/30 02:05:55;;;;;;;7.68;4.50;;;;;;;14.08;100.00;100765.06;1001290;29;20049;-88
2023/07/30 02:06:27;;;;;;;7.63;2.88;;;;;;;14.07;100.00;100768.81;1005385;29;20183;-88
2023/07/30 02:06:58;;;;;;;6.05;3.75;;;;;;;14.07;100.00;100761.59;1006318;29;20086;-88
2023/07/30 02:07:30;;;;;;;7.68;3.05;;;;;;;14.08;100.00;100765.88;1004454;29;20250;-88
2023/07/30 02:08:02;;;;;;;7.82;3.65;;;;;;;13.94;100.00;100753.84;1007805;29;20516;-88
2023/07/30 02:08:35;;;;;;;9.77;3.05;;;;;;;13.80;100.00;100764.03;1007348;29;20048;-88
2023/07/30 02:09:06;;;;;;;5.28;2.63;;;;;;;13.97;100.00;100761.41;1012715;29;20519;-87
2023/07/30 02:09:38;;;;;;;5.90;2.90;;;;;;;14.03;100.00;100763.13;1000922;29;20413;-88
2023/07/30 02:10:09;;;;;;;13.60;4.00;;;;;;;13.99;100.00;100761.16;1004343;29;20045;-88
2023/07/30 02:10:41;;;;;;;9.32;4.57;;;;;;;13.90;100.00;100758.06;1007878;29;20052;-89
2023/07/30 02:11:13;;;;;;;8.98;2.92;;;;;;;13.91;100.00;100757.81;1006808;29;20046;-88
2023/07/30 02:11:44;;;;;;;8.77;2.78;;;;;;;13.92;100.00;100756.75;1008959;29;20045;-88
2023/07/30 02:12:16;;;;;;;5.90;2.63;;;;;;;14.04;100.00;100759.41;1000661;29;20421;-88
2023/07/30 02:12:48;;;;;;;6.82;2.58;;;;;;;14.03;100.00;100757.78;1001092;29;20042;-88
2023/07/30 02:13:20;;;;;;;6.32;2.22;;;;;;;14.06;100.00;100754.59;1004609;29;20045;-88
2023/07/30 02:13:51;;;;;;;8.32;3.13;;;;;;;14.03;100.00;100756.97;997391;29;20489;-87
2023/07/30 02:14:23;;;;;;;5.07;2.80;;;;;;;14.06;100.00;100759.16;1008094;29;20052;-88
2023/07/30 02:14:54;;;;;;;6.43;2.97;;;;;;;14.09;100.00;100754.13;1007538;29;20041;-88
2023/07/30 02:15:26;;;;;;;7.60;2.83;;;;;;;14.08;100.00;100762.41;1004621;29;20050;-88
2023/07/30 02:15:58;;;;;;;7.88;3.42;;;;;;;14.12;100.00;100758.19;1004397;29;20069;-87
2023/07/30 02:16:30;;;;;;;8.82;3.15;;;;;;;14.09;100.00;100761.34;1012569;29;20055;-88
2023/07/30 02:17:02;;;;;;;6.82;2.83;;;;;;;14.10;100.00;100754.94;1009281;29;20064;-87
2023/07/30 02:17:34;;;;;;;5.15;2.67;;;;;;;14.10;100.00;100757.59;998383;29;20050;-88
2023/07/30 02:18:06;;;;;;;7.15;2.85;;;;;;;14.11;100.00;100757.38;1009615;29;20083;-88
2023/07/30 02:18:37;;;;;;;4.70;2.75;;;;;;;14.14;100.00;100756.06;1009260;29;20131;-88
2023/07/30 02:19:09;;;;;;;5.88;2.80;;;;;;;14.16;100.00;100767.34;998837;29;20425;-88
2023/07/30 02:19:42;;;;;;;9.07;2.20;;;;;;;14.14;100.00;100758.75;1002850;29;20046;-88
2023/07/30 02:20:13;;;;;;;7.28;2.63;;;;;;;14.13;100.00;100760.63;1009460;29;20037;-88
2023/07/30 02:20:45;;;;;;;7.10;2.80;;;;;;;14.10;100.00;100765.66;1002052;29;20058;-88
2023/07/30 02:21:17;;;;;;;6.05;2.75;;;;;;;14.13;100.00;100767.84;1002021;29;20061;-88
2023/07/30 02:21:48;;;;;;;9.45;2.75;;;;;;;14.08;100.00;100751.69;1002840;29;20046;-88
2023/07/30 02:22:20;;;;;;;5.97;2.67;;;;;;;14.08;100.00;100765.88;1001493;29;20042;-88
2023/07/30 02:22:52;;;;;;;10.95;2.70;;;;;;;13.84;100.00;100767.03;1002274;29;20101;-88
2023/07/30 02:23:23;;;;;;;5.70;2.78;;;;;;;13.95;100.00;100765.34;1006591;29;20074;-88
2023/07/30 02:23:55;;;;;;;5.70;2.45;;;;;;;14.03;100.00;100762.31;1004908;29;20500;-88
2023/07/30 02:24:26;;;;;;;10.30;3.20;;;;;;;14.09;100.00;100761.34;1005661;29;20043;-88
2023/07/30 02:24:58;;;;;;;5.78;2.97;;;;;;;14.05;100.00;100765.56;1003291;29;20254;-88
2023/07/30 02:25:30;;;;;;;5.97;3.05;;;;;;;14.08;100.00;100759.72;1002900;29;20061;-88
2023/07/30 02:26:02;;;;;;;7.82;2.92;;;;;;;14.10;100.00;100768.31;1005710;29;20528;-88
2023/07/30 02:26:33;;;;;;;7.45;2.92;;;;;;;14.15;100.00;100757.69;1005630;29;20045;-88
2023/07/30 02:27:05;;;;;;;3.60;2.30;;;;;;;14.15;100.00;100755.81;1013532;29;20049;-88
2023/07/30 02:27:37;;;;;;;5.18;3.35;;;;;;;14.15;100.00;100757.69;1010297;29;20176;-87
2023/07/30 02:28:09;;;;;;;4.53;2.35;;;;;;;14.14;100.00;100759.56;1006779;29;20057;-87